Terminal Aerodrome Forecast
Issued by NWS

Home | Current Version | Previous Version | Graphics & Text | Print | Product List | Glossary On
Versions: 1 2 3 4 5 6 7 8 9 10 11 12 13 14 15 16 17 18
478
FTUS43 KLSX 090302 AAA
TAFSUS
TAF AMD
KSUS 090302Z 0903/0924 31015G24KT P6SM -SN OVC035
     FM090800 31014G24KT 6SM -SN OVC030
     FM091700 31016KT P6SM BKN035
     FM092100 30017KT P6SM SCT040=

USA.gov is the U.S. government's official web portal to all federal, state and local government web resources and services.